Time;durP1;ratioP1;P1;durP2;ratioP2;P2;SDS_P1;SDS_P2;PMS_P1;PMS_P2;Temp;Humidity;BMP_temperature;BMP_pressure;BME280_temperature;BME280_humidity;BME280_pressure;Samples;Min_cycle;Max_cycle;Signal;HPM_P1;HPM_P2
2021/07/29 20:17:16;;;;;;;4.63;2.78;;;48.00;19.90;;;;;;5089854;28;20485;-64
2021/07/29 20:19:43;;;;;;;7.40;2.30;;;47.50;18.40;;;;;;5092924;28;20059;-63
2021/07/29 20:22:09;;;;;;;8.98;2.38;;;47.30;18.70;;;;;;5089534;28;20058;-64
2021/07/29 20:24:36;;;;;;;6.07;2.67;;;47.70;19.60;;;;;;5090510;28;20145;-64
2021/07/29 20:27:02;;;;;;;21.10;3.33;;;47.70;18.60;;;;;;5094197;28;20213;-63
2021/07/29 20:29:29;;;;;;;14.93;2.90;;;47.30;18.40;;;;;;5094034;28;20062;-63
2021/07/29 20:31:56;;;;;;;7.40;2.10;;;47.00;18.70;;;;;;5093800;28;20059;-63
2021/07/29 20:34:22;;;;;;;8.45;2.45;;;46.90;19.20;;;;;;5096878;28;20494;-65
2021/07/29 20:36:49;;;;;;;11.25;2.35;;;46.70;18.80;;;;;;5091487;28;20142;-64
2021/07/29 20:39:15;;;;;;;7.75;2.17;;;46.80;19.30;;;;;;5094918;28;20431;-65
2021/07/29 20:41:42;;;;;;;5.05;2.03;;;47.00;18.60;;;;;;5074526;28;20125;-64
2021/07/29 20:44:09;;;;;;;6.68;1.80;;;47.10;18.40;;;;;;5089565;28;20074;-64
2021/07/29 20:46:35;;;;;;;3.33;1.55;;;47.20;18.50;;;;;;5090170;28;20063;-64
2021/07/29 20:49:02;;;;;;;6.60;2.03;;;47.40;18.50;;;;;;5095706;28;20108;-64
2021/07/29 20:51:29;;;;;;;9.38;2.20;;;47.30;18.60;;;;;;5093245;28;20063;-64
2021/07/29 20:53:56;;;;;;;4.80;2.05;;;47.30;19.10;;;;;;5088815;28;20058;-64
2021/07/29 20:56:23;;;;;;;7.60;2.22;;;47.40;18.30;;;;;;5088900;28;20085;-64
2021/07/29 20:58:49;;;;;;;6.07;2.17;;;47.50;18.30;;;;;;5089850;28;20553;-64
2021/07/29 21:01:16;;;;;;;6.57;1.90;;;47.30;18.20;;;;;;5093395;28;20113;-64
2021/07/29 21:03:42;;;;;;;7.13;2.05;;;47.20;18.40;;;;;;5092559;28;20058;-64
2021/07/29 21:06:09;;;;;;;4.63;1.90;;;47.30;18.30;;;;;;5088468;28;20058;-64
2021/07/29 21:08:35;;;;;;;8.82;2.35;;;47.20;18.40;;;;;;5088031;28;20055;-65
2021/07/29 21:11:02;;;;;;;6.90;2.00;;;47.00;18.00;;;;;;5089326;28;20497;-65
2021/07/29 21:13:29;;;;;;;7.18;1.60;;;47.10;18.00;;;;;;5074444;28;20054;-64
2021/07/29 21:15:56;;;;;;;5.55;1.75;;;47.10;18.10;;;;;;5089577;28;20189;-65
2021/07/29 21:18:22;;;;;;;5.05;2.00;;;47.20;18.20;;;;;;5091059;28;20071;-64
2021/07/29 21:20:49;;;;;;;6.70;1.95;;;47.10;18.50;;;;;;5090939;28;21480;-65
2021/07/29 21:23:16;;;;;;;8.20;2.22;;;46.70;18.20;;;;;;5093397;28;20066;-64
2021/07/29 21:25:43;;;;;;;7.78;2.10;;;46.70;18.20;;;;;;5088861;28;20073;-64
2021/07/29 21:28:10;;;;;;;4.93;1.80;;;46.70;18.50;;;;;;5081702;28;20396;-65
2021/07/29 21:30:37;;;;;;;4.78;2.13;;;46.70;18.00;;;;;;5078440;28;20065;-64
2021/07/29 21:33:05;;;;;;;5.18;1.88;;;47.00;18.00;;;;;;5074312;28;20073;-64
2021/07/29 21:35:33;;;;;;;9.50;2.03;;;47.00;17.90;;;;;;5077200;28;20086;-64
2021/07/29 21:37:59;;;;;;;5.28;1.77;;;47.10;17.50;;;;;;5077112;28;20493;-64
2021/07/29 21:40:26;;;;;;;9.07;2.03;;;47.10;17.30;;;;;;5079858;28;20070;-64
2021/07/29 21:42:52;;;;;;;5.45;1.85;;;46.80;17.70;;;;;;5075003;28;20508;-64
2021/07/29 21:45:19;;;;;;;4.63;2.00;;;47.10;17.20;;;;;;5064412;28;20108;-65
2021/07/29 21:47:45;;;;;;;4.53;1.80;;;47.30;17.90;;;;;;5076291;28;20093;-64
2021/07/29 21:50:12;;;;;;;6.70;1.90;;;47.50;18.00;;;;;;5075374;28;20081;-64
2021/07/29 21:52:38;;;;;;;10.15;2.05;;;47.50;17.80;;;;;;5077533;28;20058;-64
2021/07/29 21:55:05;;;;;;;7.75;1.80;;;47.60;17.90;;;;;;5074269;28;20059;-64
2021/07/29 21:57:32;;;;;;;9.50;2.10;;;47.60;17.80;;;;;;5077653;28;20051;-64
2021/07/29 22:00:01;;;;;;;10.18;1.70;;;47.50;17.70;;;;;;5080627;28;20068;-65
2021/07/29 22:02:28;;;;;;;5.28;1.80;;;47.30;17.30;;;;;;5076212;28;20512;-63
2021/07/29 22:04:54;;;;;;;6.90;1.90;;;47.40;18.10;;;;;;5076678;28;20063;-64
2021/07/29 22:07:20;;;;;;;5.60;1.92;;;47.40;17.80;;;;;;5077620;28;20059;-64
2021/07/29 22:09:47;;;;;;;6.40;1.85;;;47.40;18.10;;;;;;5079027;28;20063;-64
2021/07/29 22:12:13;;;;;;;7.70;1.80;;;47.70;17.90;;;;;;5077997;28;20581;-64
2021/07/29 22:14:40;;;;;;;8.93;2.30;;;47.80;17.60;;;;;;5075834;28;20512;-65
2021/07/29 22:17:06;;;;;;;6.47;2.00;;;48.00;18.30;;;;;;5075086;28;20193;-64
2021/07/29 22:19:33;;;;;;;9.23;1.58;;;47.80;17.10;;;;;;5076424;28;20120;-64
2021/07/29 22:22:01;;;;;;;9.60;2.00;;;47.40;17.30;;;;;;5079495;28;20066;-64
2021/07/29 22:24:28;;;;;;;7.70;2.10;;;47.50;18.60;;;;;;5077657;28;20065;-64
2021/07/29 22:26:55;;;;;;;9.05;2.33;;;47.40;17.20;;;;;;5074265;28;20393;-64
2021/07/29 22:29:22;;;;;;;6.80;2.15;;;47.30;17.10;;;;;;5076757;28;20157;-64
2021/07/29 22:31:48;;;;;;;8.45;1.98;;;47.10;17.20;;;;;;5055533;28;20485;-64
2021/07/29 22:34:16;;;;;;;8.00;1.77;;;47.00;17.40;;;;;;5079353;28;20403;-64
2021/07/29 22:36:42;;;;;;;9.25;2.03;;;47.00;18.00;;;;;;5078697;28;20078;-65
2021/07/29 22:39:09;;;;;;;10.32;2.30;;;47.00;17.80;;;;;;5075283;28;20149;-64
2021/07/29 22:41:35;;;;;;;7.82;2.30;;;47.10;17.30;;;;;;5077188;28;20137;-63
2021/07/29 22:44:02;;;;;;;10.90;1.90;;;47.20;17.90;;;;;;5074986;28;20488;-63
2021/07/29 22:46:28;;;;;;;7.88;2.00;;;47.20;16.80;;;;;;5078607;28;20085;-63
2021/07/29 22:48:55;;;;;;;10.65;2.38;;;47.10;17.60;;;;;;5081118;28;20101;-64
2021/07/29 22:51:22;;;;;;;10.13;2.20;;;47.30;17.40;;;;;;5077404;28;20063;-63
2021/07/29 22:53:48;;;;;;;11.52;2.17;;;47.10;17.80;;;;;;5079451;28;20073;-64
2021/07/29 22:56:14;;;;;;;10.23;2.25;;;46.90;17.50;;;;;;5080234;28;20166;-63
2021/07/29 22:58:41;;;;;;;4.90;1.83;;;46.50;17.80;;;;;;5082807;28;20062;-64
2021/07/29 23:01:08;;;;;;;5.57;1.70;;;46.70;17.70;;;;;;5076078;28;20129;-64
2021/07/29 23:03:34;;;;;;;5.78;1.85;;;46.60;17.90;;;;;;5074472;28;20071;-64
2021/07/29 23:06:01;;;;;;;8.48;2.10;;;46.50;18.60;;;;;;5075710;28;20150;-64
2021/07/29 23:08:28;;;;;;;5.63;2.00;;;46.60;18.70;;;;;;5072221;28;20425;-65
2021/07/29 23:10:54;;;;;;;10.60;2.20;;;46.50;18.10;;;;;;5073030;28;20150;-63
2021/07/29 23:13:21;;;;;;;8.30;2.30;;;46.50;18.40;;;;;;5073677;28;20089;-66
2021/07/29 23:15:48;;;;;;;13.25;1.77;;;46.50;18.40;;;;;;5047567;28;20467;-63
2021/07/29 23:18:15;;;;;;;10.65;2.50;;;46.50;18.90;;;;;;5035106;28;20065;-64
2021/07/29 23:20:41;;;;;;;11.35;2.10;;;46.60;18.80;;;;;;5040182;28;20055;-63
2021/07/29 23:23:19;;;;;;;8.15;2.05;;;46.70;18.40;;;;;;5031425;28;20067;-62
2021/07/29 23:28:18;;;;;;;3.60;1.70;;;46.50;18.10;;;;;;5036807;28;20130;-63
2021/07/29 23:30:45;;;;;;;8.05;1.90;;;46.40;18.00;;;;;;5031636;28;20210;-63
2021/07/29 23:33:12;;;;;;;4.88;1.70;;;46.20;18.30;;;;;;5035878;28;20493;-62
2021/07/29 23:35:39;;;;;;;6.38;1.90;;;45.90;18.30;;;;;;5033154;28;20124;-63
2021/07/29 23:38:07;;;;;;;4.30;1.85;;;46.00;19.30;;;;;;5037337;28;20558;-64
2021/07/29 23:40:35;;;;;;;7.13;2.35;;;46.10;18.50;;;;;;5028834;28;20085;-64
2021/07/29 23:43:03;;;;;;;10.57;2.33;;;46.20;18.50;;;;;;5041514;28;20407;-64
2021/07/29 23:45:30;;;;;;;6.97;1.77;;;45.90;18.40;;;;;;5036799;28;20064;-63
2021/07/29 23:47:56;;;;;;;12.30;2.35;;;46.10;18.10;;;;;;5037153;28;20052;-63
2021/07/29 23:50:23;;;;;;;7.75;2.30;;;46.40;18.50;;;;;;5037070;28;20102;-63
2021/07/29 23:52:49;;;;;;;12.18;2.25;;;46.40;18.50;;;;;;5039062;28;20559;-63
2021/07/29 23:55:16;;;;;;;7.50;1.98;;;46.30;18.90;;;;;;5035982;28;20089;-63
2021/07/29 23:57:42;;;;;;;6.43;2.33;;;46.00;18.40;;;;;;5033934;28;20431;-61
